sensor_id;sensor_type;location;lat;lon;timestamp;pressure;altitude;pressure_sealevel;temperature;humidity
65685;BME280;52405;50.844;-1.062;2023-03-14T00:02:18;98942.09;;;11.90;73.26
65685;BME280;52405;50.844;-1.062;2023-03-14T00:04:44;98936.00;;;11.81;73.24
65685;BME280;52405;50.844;-1.062;2023-03-14T00:07:13;98955.09;;;11.87;73.53
65685;BME280;52405;50.844;-1.062;2023-03-14T00:09:38;98938.56;;;11.73;73.63
65685;BME280;52405;50.844;-1.062;2023-03-14T00:12:04;98957.69;;;11.86;73.66
65685;BME280;52405;50.844;-1.062;2023-03-14T00:14:34;98954.19;;;11.79;74.16
65685;BME280;52405;50.844;-1.062;2023-03-14T00:16:59;98937.69;;;11.72;74.31
65685;BME280;52405;50.844;-1.062;2023-03-14T00:26:19;98962.00;;;11.82;75.13
65685;BME280;52405;50.844;-1.062;2023-03-14T00:28:46;98917.72;;;11.54;74.41
65685;BME280;52405;50.844;-1.062;2023-03-14T00:31:14;98979.34;;;11.83;74.60
65685;BME280;52405;50.844;-1.062;2023-03-14T00:33:40;98969.81;;;11.82;74.81
65685;BME280;52405;50.844;-1.062;2023-03-14T00:36:08;98971.53;;;11.77;75.08
65685;BME280;52405;50.844;-1.062;2023-03-14T00:38:35;98964.59;;;11.81;74.80
65685;BME280;52405;50.844;-1.062;2023-03-14T00:41:10;98922.03;;;11.54;74.97
65685;BME280;52405;50.844;-1.062;2023-03-14T00:43:41;98944.63;;;11.64;74.86
65685;BME280;52405;50.844;-1.062;2023-03-14T00:46:07;98974.16;;;11.80;75.20
65685;BME280;52405;50.844;-1.062;2023-03-14T00:48:33;98980.19;;;11.85;74.88
65685;BME280;52405;50.844;-1.062;2023-03-14T00:50:59;98991.50;;;11.86;74.80
65685;BME280;52405;50.844;-1.062;2023-03-14T00:53:24;98981.06;;;11.81;75.26
65685;BME280;52405;50.844;-1.062;2023-03-14T00:55:49;98960.22;;;11.66;74.62
65685;BME280;52405;50.844;-1.062;2023-03-14T00:58:18;98945.47;;;11.58;75.06
65685;BME280;52405;50.844;-1.062;2023-03-14T01:00:44;98926.34;;;11.41;75.12
65685;BME280;52405;50.844;-1.062;2023-03-14T01:03:12;99010.56;;;11.86;74.98
65685;BME280;52405;50.844;-1.062;2023-03-14T01:05:37;99008.81;;;11.79;74.56
65685;BME280;52405;50.844;-1.062;2023-03-14T01:08:06;99041.75;;;11.79;75.14
65685;BME280;52405;50.844;-1.062;2023-03-14T01:10:33;99017.41;;;11.63;75.18
65685;BME280;52405;50.844;-1.062;2023-03-14T01:12:59;99057.34;;;11.74;74.92
65685;BME280;52405;50.844;-1.062;2023-03-14T01:15:28;99079.84;;;11.64;74.07
65685;BME280;52405;50.844;-1.062;2023-03-14T01:17:53;99111.91;;;11.65;73.35
65685;BME280;52405;50.844;-1.062;2023-03-14T01:20:19;99127.44;;;11.55;73.03
65685;BME280;52405;50.844;-1.062;2023-03-14T01:22:46;99127.34;;;11.38;71.51
65685;BME280;52405;50.844;-1.062;2023-03-14T01:25:14;99168.09;;;11.40;71.01
65685;BME280;52405;50.844;-1.062;2023-03-14T01:27:40;99174.06;;;11.28;70.20
65685;BME280;52405;50.844;-1.062;2023-03-14T01:30:09;99182.59;;;11.13;69.82
65685;BME280;52405;50.844;-1.062;2023-03-14T01:32:37;99181.59;;;10.95;69.32
65685;BME280;52405;50.844;-1.062;2023-03-14T01:35:03;99150.97;;;10.60;69.42
65685;BME280;52405;50.844;-1.062;2023-03-14T01:37:28;99195.16;;;10.68;68.90
65685;BME280;52405;50.844;-1.062;2023-03-14T01:39:54;99197.69;;;10.60;68.88
65685;BME280;52405;50.844;-1.062;2023-03-14T01:42:21;99195.78;;;10.44;68.78
65685;BME280;52405;50.844;-1.062;2023-03-14T01:44:54;99253.13;;;10.67;69.02
65685;BME280;52405;50.844;-1.062;2023-03-14T01:47:22;99252.22;;;10.60;68.86
65685;BME280;52405;50.844;-1.062;2023-03-14T01:49:55;99279.09;;;10.67;68.78
65685;BME280;52405;50.844;-1.062;2023-03-14T01:52:26;99292.06;;;10.66;68.97
65685;BME280;52405;50.844;-1.062;2023-03-14T01:54:55;99257.94;;;10.35;68.99
65685;BME280;52405;50.844;-1.062;2023-03-14T01:57:28;99302.25;;;10.50;68.63
65685;BME280;52405;50.844;-1.062;2023-03-14T02:00:01;99325.53;;;10.46;68.81
65685;BME280;52405;50.844;-1.062;2023-03-14T02:02:33;99340.19;;;10.39;69.16
65685;BME280;52405;50.844;-1.062;2023-03-14T02:04:59;99306.81;;;10.09;69.33
65685;BME280;52405;50.844;-1.062;2023-03-14T02:07:47;99347.63;;;10.17;70.23
65685;BME280;52405;50.844;-1.062;2023-03-14T02:10:16;99380.63;;;10.26;70.15
65685;BME280;52405;50.844;-1.062;2023-03-14T02:12:45;99366.56;;;10.12;70.63
65685;BME280;52405;50.844;-1.062;2023-03-14T02:15:11;99390.00;;;10.16;70.69
65685;BME280;52405;50.844;-1.062;2023-03-14T02:17:37;99393.34;;;10.09;70.06
65685;BME280;52405;50.844;-1.062;2023-03-14T02:22:53;99400.00;;;9.95;70.65
65685;BME280;52405;50.844;-1.062;2023-03-14T02:27:53;99438.91;;;9.95;70.32
65685;BME280;52405;50.844;-1.062;2023-03-14T02:30:25;99437.13;;;9.92;70.05
65685;BME280;52405;50.844;-1.062;2023-03-14T02:33:15;99432.66;;;9.85;69.19
65685;BME280;52405;50.844;-1.062;2023-03-14T02:35:57;99437.63;;;9.71;69.20
65685;BME280;52405;50.844;-1.062;2023-03-14T02:40:54;99412.63;;;9.29;69.33
65685;BME280;52405;50.844;-1.062;2023-03-14T02:43:20;99458.63;;;9.41;68.71
65685;BME280;52405;50.844;-1.062;2023-03-14T02:45:46;99467.00;;;9.27;67.69
65685;BME280;52405;50.844;-1.062;2023-03-14T02:48:19;99478.06;;;9.20;66.59
65685;BME280;52405;50.844;-1.062;2023-03-14T02:50:47;99509.13;;;9.19;66.28
65685;BME280;52405;50.844;-1.062;2023-03-14T02:53:17;99506.03;;;8.96;66.02
65685;BME280;52405;50.844;-1.062;2023-03-14T02:55:50;99522.53;;;8.99;65.18
65685;BME280;52405;50.844;-1.062;2023-03-14T02:58:16;99537.91;;;8.93;65.78
65685;BME280;52405;50.844;-1.062;2023-03-14T03:00:42;99534.19;;;8.82;65.21
65685;BME280;52405;50.844;-1.062;2023-03-14T03:03:08;99543.59;;;8.78;64.65
65685;BME280;52405;50.844;-1.062;2023-03-14T03:05:33;99521.59;;;8.59;64.16
65685;BME280;52405;50.844;-1.062;2023-03-14T03:07:59;99544.19;;;8.66;64.25
65685;BME280;52405;50.844;-1.062;2023-03-14T03:10:27;99556.97;;;8.59;63.38
65685;BME280;52405;50.844;-1.062;2023-03-14T03:12:53;99571.44;;;8.52;63.36
65685;BME280;52405;50.844;-1.062;2023-03-14T03:15:21;99558.91;;;8.36;63.05
65685;BME280;52405;50.844;-1.062;2023-03-14T03:17:47;99585.00;;;8.42;63.39
65685;BME280;52405;50.844;-1.062;2023-03-14T03:20:14;99593.41;;;8.36;63.07
65685;BME280;52405;50.844;-1.062;2023-03-14T03:22:42;99604.53;;;8.32;63.29
65685;BME280;52405;50.844;-1.062;2023-03-14T03:25:09;99529.75;;;7.76;62.79
65685;BME280;52405;50.844;-1.062;2023-03-14T03:27:37;99625.81;;;8.22;62.64
65685;BME280;52405;50.844;-1.062;2023-03-14T03:30:07;99623.91;;;8.15;62.99
65685;BME280;52405;50.844;-1.062;2023-03-14T03:32:33;99642.88;;;8.15;63.26
65685;BME280;52405;50.844;-1.062;2023-03-14T03:34:59;99629.53;;;8.01;62.86
65685;BME280;52405;50.844;-1.062;2023-03-14T03:37:24;99637.03;;;7.92;63.15
65685;BME280;52405;50.844;-1.062;2023-03-14T03:39:50;99664.09;;;8.03;61.58
65685;BME280;52405;50.844;-1.062;2023-03-14T03:42:17;99667.41;;;7.99;62.57
65685;BME280;52405;50.844;-1.062;2023-03-14T03:44:45;99589.97;;;7.43;62.62
65685;BME280;52405;50.844;-1.062;2023-03-14T03:47:10;99644.94;;;7.68;62.30
65685;BME280;52405;50.844;-1.062;2023-03-14T03:49:36;99694.66;;;7.88;62.51
65685;BME280;52405;50.844;-1.062;2023-03-14T03:52:01;99701.50;;;7.86;62.07
65685;BME280;52405;50.844;-1.062;2023-03-14T03:54:27;99694.31;;;7.76;61.91
65685;BME280;52405;50.844;-1.062;2023-03-14T03:56:54;99698.63;;;7.77;62.04
65685;BME280;52405;50.844;-1.062;2023-03-14T03:59:22;99651.19;;;7.46;61.61
65685;BME280;52405;50.844;-1.062;2023-03-14T04:01:49;99689.34;;;7.55;61.67
65685;BME280;52405;50.844;-1.062;2023-03-14T04:04:15;99724.25;;;7.69;61.80
65685;BME280;52405;50.844;-1.062;2023-03-14T04:06:40;99669.81;;;7.36;61.20
65685;BME280;52405;50.844;-1.062;2023-03-14T04:09:10;99728.41;;;7.64;61.71
65685;BME280;52405;50.844;-1.062;2023-03-14T04:11:35;99718.63;;;7.53;61.93
65685;BME280;52405;50.844;-1.062;2023-03-14T04:14:04;99742.00;;;7.58;62.23
65685;BME280;52405;50.844;-1.062;2023-03-14T04:16:30;99731.38;;;7.49;62.14
65685;BME280;52405;50.844;-1.062;2023-03-14T04:18:58;99754.78;;;7.53;62.19
65685;BME280;52405;50.844;-1.062;2023-03-14T04:21:24;99766.75;;;7.51;62.64
65685;BME280;52405;50.844;-1.062;2023-03-14T04:23:50;99772.72;;;7.49;62.10
65685;BME280;52405;50.844;-1.062;2023-03-14T04:26:16;99782.81;;;7.41;62.46
65685;BME280;52405;50.844;-1.062;2023-03-14T04:28:43;99795.78;;;7.43;62.77
65685;BME280;52405;50.844;-1.062;2023-03-14T04:31:17;99793.06;;;7.40;61.83
65685;BME280;52405;50.844;-1.062;2023-03-14T04:33:43;99776.84;;;7.18;62.78
65685;BME280;52405;50.844;-1.062;2023-03-14T04:36:09;99768.59;;;7.03;62.37
65685;BME280;52405;50.844;-1.062;2023-03-14T04:38:36;99770.25;;;7.01;62.64
65685;BME280;52405;50.844;-1.062;2023-03-14T04:41:02;99794.84;;;7.15;62.30
65685;BME280;52405;50.844;-1.062;2023-03-14T04:43:31;99832.25;;;7.26;62.57
65685;BME280;52405;50.844;-1.062;2023-03-14T04:45:57;99848.72;;;7.30;62.97
65685;BME280;52405;50.844;-1.062;2023-03-14T04:48:24;99849.53;;;7.29;62.62
65685;BME280;52405;50.844;-1.062;2023-03-14T04:50:52;99858.16;;;7.29;61.92
65685;BME280;52405;50.844;-1.062;2023-03-14T04:53:18;99855.53;;;7.28;62.11
65685;BME280;52405;50.844;-1.062;2023-03-14T04:55:50;99872.78;;;7.29;61.84
65685;BME280;52405;50.844;-1.062;2023-03-14T04:58:16;99854.50;;;7.23;63.30
65685;BME280;52405;50.844;-1.062;2023-03-14T05:00:45;99869.16;;;7.24;62.37
65685;BME280;52405;50.844;-1.062;2023-03-14T05:03:10;99853.28;;;7.13;62.54
65685;BME280;52405;50.844;-1.062;2023-03-14T05:05:38;99813.97;;;6.96;63.02
65685;BME280;52405;50.844;-1.062;2023-03-14T05:08:03;99880.59;;;7.30;63.23
65685;BME280;52405;50.844;-1.062;2023-03-14T05:10:31;99851.69;;;7.17;62.83
65685;BME280;52405;50.844;-1.062;2023-03-14T05:12:57;99858.72;;;7.21;63.57
65685;BME280;52405;50.844;-1.062;2023-03-14T05:15:22;99872.84;;;7.30;63.22
65685;BME280;52405;50.844;-1.062;2023-03-14T05:17:47;99877.94;;;7.29;62.33
65685;BME280;52405;50.844;-1.062;2023-03-14T05:20:14;99853.00;;;7.05;63.08
65685;BME280;52405;50.844;-1.062;2023-03-14T05:22:43;99852.00;;;7.02;63.33
65685;BME280;52405;50.844;-1.062;2023-03-14T05:25:09;99871.91;;;7.04;63.06
65685;BME280;52405;50.844;-1.062;2023-03-14T05:27:35;99884.91;;;7.07;62.46
65685;BME280;52405;50.844;-1.062;2023-03-14T05:30:02;99911.13;;;7.18;63.30
65685;BME280;52405;50.844;-1.062;2023-03-14T05:32:30;99918.00;;;7.18;62.55
65685;BME280;52405;50.844;-1.062;2023-03-14T05:34:55;99889.06;;;7.02;63.54
65685;BME280;52405;50.844;-1.062;2023-03-14T05:37:26;99920.66;;;7.19;63.07
65685;BME280;52405;50.844;-1.062;2023-03-14T05:39:52;99924.09;;;7.20;62.59
65685;BME280;52405;50.844;-1.062;2023-03-14T05:42:18;99910.25;;;7.18;62.71
65685;BME280;52405;50.844;-1.062;2023-03-14T05:44:43;99933.66;;;7.22;63.17
65685;BME280;52405;50.844;-1.062;2023-03-14T05:47:12;99932.03;;;7.24;62.90
65685;BME280;52405;50.844;-1.062;2023-03-14T05:49:37;99930.97;;;7.19;62.44
65685;BME280;52405;50.844;-1.062;2023-03-14T05:52:03;99960.44;;;7.24;62.73
65685;BME280;52405;50.844;-1.062;2023-03-14T05:54:30;99975.09;;;7.25;62.52
65685;BME280;52405;50.844;-1.062;2023-03-14T05:56:56;99944.56;;;7.13;63.26
65685;BME280;52405;50.844;-1.062;2023-03-14T05:59:21;99975.97;;;7.26;62.85
65685;BME280;52405;50.844;-1.062;2023-03-14T06:01:47;99987.22;;;7.26;62.87
65685;BME280;52405;50.844;-1.062;2023-03-14T06:04:14;99978.53;;;7.24;63.43
65685;BME280;52405;50.844;-1.062;2023-03-14T06:06:42;99987.16;;;7.25;63.10
65685;BME280;52405;50.844;-1.062;2023-03-14T06:09:10;99989.53;;;7.20;63.15
65685;BME280;52405;50.844;-1.062;2023-03-14T06:11:38;100012.97;;;7.25;63.09
65685;BME280;52405;50.844;-1.062;2023-03-14T06:14:03;99953.00;;;6.87;62.95
65685;BME280;52405;50.844;-1.062;2023-03-14T06:16:28;100012.97;;;7.25;63.88
65685;BME280;52405;50.844;-1.062;2023-03-14T06:18:54;100002.44;;;7.19;63.27
65685;BME280;52405;50.844;-1.062;2023-03-14T06:21:19;100013.03;;;7.26;62.83
65685;BME280;52405;50.844;-1.062;2023-03-14T06:23:45;100021.66;;;7.27;63.21
65685;BME280;52405;50.844;-1.062;2023-03-14T06:26:13;100004.94;;;7.17;62.35
65685;BME280;52405;50.844;-1.062;2023-03-14T06:28:41;100025.13;;;7.27;62.86
65685;BME280;52405;50.844;-1.062;2023-03-14T06:31:06;100001.25;;;7.10;62.51
65685;BME280;52405;50.844;-1.062;2023-03-14T06:33:32;100031.22;;;7.29;62.76
65685;BME280;52405;50.844;-1.062;2023-03-14T06:35:57;100037.16;;;7.27;62.05
65685;BME280;52405;50.844;-1.062;2023-03-14T06:38:23;100057.16;;;7.32;62.80
65685;BME280;52405;50.844;-1.062;2023-03-14T06:40:48;100070.22;;;7.36;62.27
65685;BME280;52405;50.844;-1.062;2023-03-14T06:43:16;100057.16;;;7.32;62.30
65685;BME280;52405;50.844;-1.062;2023-03-14T06:45:41;100077.19;;;7.38;61.78
65685;BME280;52405;50.844;-1.062;2023-03-14T06:48:07;100061.28;;;7.27;61.87
65685;BME280;52405;50.844;-1.062;2023-03-14T06:50:34;100083.28;;;7.40;62.75
65685;BME280;52405;50.844;-1.062;2023-03-14T06:52:59;100088.59;;;7.43;61.75
65685;BME280;52405;50.844;-1.062;2023-03-14T06:55:25;100083.81;;;7.31;62.61
65685;BME280;52405;50.844;-1.062;2023-03-14T06:57:55;100123.38;;;7.53;61.93
65685;BME280;52405;50.844;-1.062;2023-03-14T07:00:23;100081.19;;;7.30;62.22
65685;BME280;52405;50.844;-1.062;2023-03-14T07:02:50;100118.75;;;7.44;62.33
65685;BME280;52405;50.844;-1.062;2023-03-14T07:05:17;100102.78;;;7.32;62.67
65685;BME280;52405;50.844;-1.062;2023-03-14T07:07:43;100106.38;;;7.36;61.76
65685;BME280;52405;50.844;-1.062;2023-03-14T07:10:08;100156.47;;;7.62;61.25
65685;BME280;52405;50.844;-1.062;2023-03-14T07:12:36;100160.19;;;7.68;61.89
65685;BME280;52405;50.844;-1.062;2023-03-14T07:15:02;100143.59;;;7.63;61.78
65685;BME280;52405;50.844;-1.062;2023-03-14T07:17:29;100162.53;;;7.85;61.58
65685;BME280;52405;50.844;-1.062;2023-03-14T07:19:55;100175.00;;;7.97;61.70
65685;BME280;52405;50.844;-1.062;2023-03-14T07:22:20;100148.38;;;7.99;61.64
65685;BME280;52405;50.844;-1.062;2023-03-14T07:24:49;100152.94;;;8.06;61.23
65685;BME280;52405;50.844;-1.062;2023-03-14T07:27:16;100144.50;;;8.10;61.37
65685;BME280;52405;50.844;-1.062;2023-03-14T07:29:42;100131.56;;;8.10;61.56
65685;BME280;52405;50.844;-1.062;2023-03-14T07:32:07;100178.16;;;8.36;61.44
65685;BME280;52405;50.844;-1.062;2023-03-14T07:34:35;100157.03;;;8.24;60.67
65685;BME280;52405;50.844;-1.062;2023-03-14T07:37:02;100199.28;;;8.47;60.66
65685;BME280;52405;50.844;-1.062;2023-03-14T07:39:30;100196.31;;;8.38;61.19
65685;BME280;52405;50.844;-1.062;2023-03-14T07:41:55;100223.47;;;8.47;60.83
65685;BME280;52405;50.844;-1.062;2023-03-14T07:44:23;100238.81;;;8.43;61.04
65685;BME280;52405;50.844;-1.062;2023-03-14T07:46:48;100206.13;;;8.22;60.88
65685;BME280;52405;50.844;-1.062;2023-03-14T07:49:16;100247.56;;;8.46;61.14
65685;BME280;52405;50.844;-1.062;2023-03-14T07:51:41;100259.03;;;8.53;61.22
65685;BME280;52405;50.844;-1.062;2023-03-14T07:54:09;100251.44;;;8.58;60.91
65685;BME280;52405;50.844;-1.062;2023-03-14T07:56:34;100268.81;;;8.60;60.41
65685;BME280;52405;50.844;-1.062;2023-03-14T07:59:00;100274.72;;;8.58;60.49
65685;BME280;52405;50.844;-1.062;2023-03-14T08:01:26;100205.25;;;8.22;59.71
65685;BME280;52405;50.844;-1.062;2023-03-14T08:03:51;100282.00;;;8.68;60.13
65685;BME280;52405;50.844;-1.062;2023-03-14T08:06:19;100238.94;;;8.46;59.60
65685;BME280;52405;50.844;-1.062;2023-03-14T08:08:44;100283.75;;;8.69;59.75
65685;BME280;52405;50.844;-1.062;2023-03-14T08:11:14;100314.81;;;8.92;60.16
65685;BME280;52405;50.844;-1.062;2023-03-14T08:13:42;100292.41;;;8.94;60.26
65685;BME280;52405;50.844;-1.062;2023-03-14T08:16:15;100286.28;;;9.16;60.57
65685;BME280;52405;50.844;-1.062;2023-03-14T08:18:43;100284.97;;;9.54;60.49
65685;BME280;52405;50.844;-1.062;2023-03-14T08:21:09;100343.50;;;10.29;59.36
65685;BME280;52405;50.844;-1.062;2023-03-14T08:23:34;100347.69;;;10.82;58.48
65685;BME280;52405;50.844;-1.062;2023-03-14T08:26:02;100353.78;;;11.46;57.92
65685;BME280;52405;50.844;-1.062;2023-03-14T08:28:28;100321.50;;;12.09;57.01
65685;BME280;52405;50.844;-1.062;2023-03-14T08:31:01;100345.19;;;13.02;55.92
65685;BME280;52405;50.844;-1.062;2023-03-14T08:33:28;100366.53;;;13.74;54.31
65685;BME280;52405;50.844;-1.062;2023-03-14T08:35:55;100344.63;;;14.20;53.55
65685;BME280;52405;50.844;-1.062;2023-03-14T08:38:21;100356.88;;;14.86;52.77
65685;BME280;52405;50.844;-1.062;2023-03-14T08:40:47;100380.91;;;15.26;51.58
65685;BME280;52405;50.844;-1.062;2023-03-14T08:43:12;100336.72;;;14.75;50.40
65685;BME280;52405;50.844;-1.062;2023-03-14T08:45:38;100391.88;;;14.97;49.84
65685;BME280;52405;50.844;-1.062;2023-03-14T08:48:09;100358.22;;;14.56;49.68
65685;BME280;52405;50.844;-1.062;2023-03-14T08:50:34;100418.31;;;14.56;49.63
65685;BME280;52405;50.844;-1.062;2023-03-14T08:52:59;100432.50;;;14.17;49.04
65685;BME280;52405;50.844;-1.062;2023-03-14T08:55:28;100426.66;;;13.80;49.63
65685;BME280;52405;50.844;-1.062;2023-03-14T08:57:53;100379.41;;;13.19;49.22
65685;BME280;52405;50.844;-1.062;2023-03-14T09:00:19;100441.03;;;13.14;49.31
65685;BME280;52405;50.844;-1.062;2023-03-14T09:02:45;100449.84;;;12.78;48.79
65685;BME280;52405;50.844;-1.062;2023-03-14T09:05:13;100450.63;;;12.37;49.10
65685;BME280;52405;50.844;-1.062;2023-03-14T09:07:40;100470.13;;;12.18;49.64
65685;BME280;52405;50.844;-1.062;2023-03-14T09:10:09;100459.06;;;11.92;49.68
65685;BME280;52405;50.844;-1.062;2023-03-14T09:12:37;100466.19;;;11.67;50.10
65685;BME280;52405;50.844;-1.062;2023-03-14T09:15:05;100444.75;;;11.44;49.17
65685;BME280;52405;50.844;-1.062;2023-03-14T09:17:31;100433.56;;;11.16;49.83
65685;BME280;52405;50.844;-1.062;2023-03-14T09:19:57;100401.69;;;10.92;49.94
65685;BME280;52405;50.844;-1.062;2023-03-14T09:22:22;100469.00;;;11.13;50.43
65685;BME280;52405;50.844;-1.062;2023-03-14T09:24:48;100490.81;;;11.18;50.12
65685;BME280;52405;50.844;-1.062;2023-03-14T09:27:15;100489.66;;;11.08;50.29
65685;BME280;52405;50.844;-1.062;2023-03-14T09:29:41;100504.22;;;11.03;49.92
65685;BME280;52405;50.844;-1.062;2023-03-14T09:32:06;100500.28;;;10.87;50.32
65685;BME280;52405;50.844;-1.062;2023-03-14T09:34:34;100538.00;;;11.03;51.32
65685;BME280;52405;50.844;-1.062;2023-03-14T09:37:02;100544.97;;;11.04;51.35
65685;BME280;52405;50.844;-1.062;2023-03-14T09:39:30;100512.41;;;10.87;50.67
65685;BME280;52405;50.844;-1.062;2023-03-14T09:41:57;100573.00;;;11.14;50.24
65685;BME280;52405;50.844;-1.062;2023-03-14T09:44:30;100574.63;;;11.11;50.14
65685;BME280;52405;50.844;-1.062;2023-03-14T09:47:00;100565.56;;;10.98;51.09
65685;BME280;52405;50.844;-1.062;2023-03-14T09:49:31;100598.03;;;11.11;51.24
65685;BME280;52405;50.844;-1.062;2023-03-14T09:51:59;100593.91;;;10.90;51.95
65685;BME280;52405;50.844;-1.062;2023-03-14T09:54:38;100622.78;;;10.72;52.76
65685;BME280;52405;50.844;-1.062;2023-03-14T09:57:05;100595.03;;;10.21;53.34
65685;BME280;52405;50.844;-1.062;2023-03-14T09:59:34;100630.22;;;10.13;53.92
65685;BME280;52405;50.844;-1.062;2023-03-14T10:02:02;100646.13;;;9.98;54.70
65685;BME280;52405;50.844;-1.062;2023-03-14T10:04:38;100653.84;;;9.97;55.00
65685;BME280;52405;50.844;-1.062;2023-03-14T10:07:19;100626.56;;;10.08;55.43
65685;BME280;52405;50.844;-1.062;2023-03-14T10:09:51;100628.38;;;10.59;54.90
65685;BME280;52405;50.844;-1.062;2023-03-14T10:12:19;100675.78;;;11.32;54.40
65685;BME280;52405;50.844;-1.062;2023-03-14T10:14:51;100682.41;;;11.76;53.17
65685;BME280;52405;50.844;-1.062;2023-03-14T10:17:18;100688.31;;;11.72;51.91
65685;BME280;52405;50.844;-1.062;2023-03-14T10:20:00;100691.06;;;11.48;52.21
65685;BME280;52405;50.844;-1.062;2023-03-14T10:22:33;100680.72;;;10.97;52.15
65685;BME280;52405;50.844;-1.062;2023-03-14T10:25:10;100719.69;;;10.71;52.35
65685;BME280;52405;50.844;-1.062;2023-03-14T10:27:52;100711.97;;;10.73;53.72
65685;BME280;52405;50.844;-1.062;2023-03-14T10:32:56;100724.94;;;10.73;53.30
65685;BME280;52405;50.844;-1.062;2023-03-14T10:35:22;100730.41;;;11.06;53.15
65685;BME280;52405;50.844;-1.062;2023-03-14T10:37:58;100737.81;;;11.47;52.02
65685;BME280;52405;50.844;-1.062;2023-03-14T10:40:31;100744.03;;;11.79;51.32
65685;BME280;52405;50.844;-1.062;2023-03-14T10:43:00;100743.00;;;11.74;51.66
65685;BME280;52405;50.844;-1.062;2023-03-14T10:45:39;100759.75;;;11.55;50.90
65685;BME280;52405;50.844;-1.062;2023-03-14T10:48:24;100755.44;;;11.55;51.01
65685;BME280;52405;50.844;-1.062;2023-03-14T10:53:55;100770.81;;;11.75;50.30
65685;BME280;52405;50.844;-1.062;2023-03-14T10:56:23;100762.91;;;11.72;49.66
65685;BME280;52405;50.844;-1.062;2023-03-14T10:58:58;100755.59;;;11.60;48.73
65685;BME280;52405;50.844;-1.062;2023-03-14T11:04:35;100793.66;;;11.85;50.00
65685;BME280;52405;50.844;-1.062;2023-03-14T11:13:00;100833.88;;;12.21;49.06
65685;BME280;52405;50.844;-1.062;2023-03-14T11:15:45;100840.97;;;12.26;47.69
65685;BME280;52405;50.844;-1.062;2023-03-14T11:21:08;100857.19;;;12.18;47.38
65685;BME280;52405;50.844;-1.062;2023-03-14T11:24:12;100862.00;;;12.32;47.55
65685;BME280;52405;50.844;-1.062;2023-03-14T11:26:55;100873.66;;;12.45;47.81
65685;BME280;52405;50.844;-1.062;2023-03-14T11:31:57;100875.38;;;12.16;48.31
65685;BME280;52405;50.844;-1.062;2023-03-14T11:34:39;100881.84;;;12.29;48.05
65685;BME280;52405;50.844;-1.062;2023-03-14T11:37:14;100887.00;;;12.27;47.87
65685;BME280;52405;50.844;-1.062;2023-03-14T11:39:49;100890.88;;;12.13;48.26
65685;BME280;52405;50.844;-1.062;2023-03-14T11:42:17;100888.44;;;11.90;48.60
65685;BME280;52405;50.844;-1.062;2023-03-14T11:44:47;100897.47;;;12.02;48.86
65685;BME280;52405;50.844;-1.062;2023-03-14T11:47:24;100920.91;;;12.29;48.66
65685;BME280;52405;50.844;-1.062;2023-03-14T11:52:22;100922.19;;;12.70;46.08
65685;BME280;52405;50.844;-1.062;2023-03-14T11:54:55;100931.88;;;12.75;46.72
65685;BME280;52405;50.844;-1.062;2023-03-14T11:57:22;100939.97;;;12.84;46.40
65685;BME280;52405;50.844;-1.062;2023-03-14T12:10:48;100960.13;;;12.89;44.93
65685;BME280;52405;50.844;-1.062;2023-03-14T12:13:15;100919.75;;;12.48;45.69
65685;BME280;52405;50.844;-1.062;2023-03-14T12:21:03;100978.75;;;12.46;46.19
65685;BME280;52405;50.844;-1.062;2023-03-14T12:28:43;100961.47;;;12.21;45.87
65685;BME280;52405;50.844;-1.062;2023-03-14T12:34:50;100985.22;;;12.59;45.57
65685;BME280;52405;50.844;-1.062;2023-03-14T12:37:27;100970.09;;;12.47;45.24
65685;BME280;52405;50.844;-1.062;2023-03-14T12:40:26;101001.78;;;12.59;44.80
65685;BME280;52405;50.844;-1.062;2023-03-14T12:43:00;101006.22;;;12.63;45.15
65685;BME280;52405;50.844;-1.062;2023-03-14T12:48:32;101016.25;;;12.78;44.98
65685;BME280;52405;50.844;-1.062;2023-03-14T12:51:03;101001.19;;;12.69;44.49
65685;BME280;52405;50.844;-1.062;2023-03-14T13:02:21;101018.88;;;13.07;45.17
65685;BME280;52405;50.844;-1.062;2023-03-14T13:04:53;100999.06;;;13.14;44.65
65685;BME280;52405;50.844;-1.062;2023-03-14T13:13:03;101018.13;;;13.40;43.68
65685;BME280;52405;50.844;-1.062;2023-03-14T13:15:30;101023.31;;;13.38;44.56
65685;BME280;52405;50.844;-1.062;2023-03-14T13:18:03;101042.91;;;13.27;43.64
65685;BME280;52405;50.844;-1.062;2023-03-14T13:20:55;101024.16;;;13.10;42.51
65685;BME280;52405;50.844;-1.062;2023-03-14T13:23:27;101025.56;;;12.99;43.14
65685;BME280;52405;50.844;-1.062;2023-03-14T13:25:53;101034.97;;;12.93;43.72
65685;BME280;52405;50.844;-1.062;2023-03-14T13:28:19;101022.56;;;12.86;43.48
65685;BME280;52405;50.844;-1.062;2023-03-14T13:30:50;101024.88;;;12.76;43.34
65685;BME280;52405;50.844;-1.062;2023-03-14T13:33:21;101036.13;;;12.75;43.28
65685;BME280;52405;50.844;-1.062;2023-03-14T13:35:58;101030.81;;;12.71;42.64
65685;BME280;52405;50.844;-1.062;2023-03-14T13:38:26;101032.41;;;12.68;43.09
65685;BME280;52405;50.844;-1.062;2023-03-14T13:40:55;101035.97;;;12.70;42.74
65685;BME280;52405;50.844;-1.062;2023-03-14T13:43:33;101031.31;;;12.60;43.00
65685;BME280;52405;50.844;-1.062;2023-03-14T13:46:11;101039.00;;;12.57;42.74
65685;BME280;52405;50.844;-1.062;2023-03-14T13:48:44;101050.81;;;12.45;42.88
65685;BME280;52405;50.844;-1.062;2023-03-14T13:51:16;101042.56;;;12.33;43.16
65685;BME280;52405;50.844;-1.062;2023-03-14T13:53:53;101048.47;;;12.27;43.19
65685;BME280;52405;50.844;-1.062;2023-03-14T13:56:25;101026.94;;;12.07;43.28
65685;BME280;52405;50.844;-1.062;2023-03-14T13:58:51;101032.94;;;12.05;43.11
65685;BME280;52405;50.844;-1.062;2023-03-14T14:01:31;101056.63;;;12.12;42.94
65685;BME280;52405;50.844;-1.062;2023-03-14T14:04:01;101066.13;;;12.10;44.04
65685;BME280;52405;50.844;-1.062;2023-03-14T14:06:46;101072.19;;;12.11;43.04
65685;BME280;52405;50.844;-1.062;2023-03-14T14:09:17;101051.66;;;11.94;43.15
65685;BME280;52405;50.844;-1.062;2023-03-14T14:16:54;101044.28;;;11.58;43.68
65685;BME280;52405;50.844;-1.062;2023-03-14T14:19:23;101072.25;;;11.64;43.44
65685;BME280;52405;50.844;-1.062;2023-03-14T14:21:50;101098.47;;;11.70;43.57
65685;BME280;52405;50.844;-1.062;2023-03-14T14:24:22;101077.91;;;11.52;43.21